createdAt,value
2023-05-10T00:01:26.162Z,4.77
2023-05-10T00:03:52.782Z,7.07
2023-05-10T00:06:19.486Z,6.00
2023-05-10T00:08:46.412Z,5.93
2023-05-10T00:11:14.532Z,5.65
2023-05-10T00:13:42.415Z,5.77
2023-05-10T00:16:08.999Z,5.53
2023-05-10T00:18:35.805Z,6.07
2023-05-10T00:21:02.362Z,4.80
2023-05-10T00:23:28.983Z,6.10
2023-05-10T00:25:55.523Z,5.47
2023-05-10T00:28:23.797Z,4.80
2023-05-10T00:30:50.467Z,4.40
2023-05-10T00:33:17.100Z,4.43
2023-05-10T00:35:43.656Z,6.60
2023-05-10T00:38:10.246Z,5.53
2023-05-10T00:40:37.040Z,7.07
2023-05-10T00:43:03.633Z,6.18
2023-05-10T00:45:32.791Z,6.88
2023-05-10T00:48:00.002Z,7.43
2023-05-10T00:50:26.882Z,7.77
2023-05-10T00:52:53.733Z,7.93
2023-05-10T00:55:20.815Z,10.20
2023-05-10T00:57:48.088Z,8.23
2023-05-10T01:00:15.667Z,7.28
2023-05-10T01:02:43.824Z,6.83
2023-05-10T01:05:13.427Z,7.68
2023-05-10T01:07:40.735Z,7.18
2023-05-10T01:10:08.961Z,8.35
2023-05-10T01:12:38.039Z,8.35
2023-05-10T01:15:06.374Z,7.57
2023-05-10T01:17:34.044Z,9.25
2023-05-10T01:20:02.373Z,9.05
2023-05-10T01:23:01.105Z,10.02
2023-05-10T01:26:01.649Z,9.32
2023-05-10T01:28:48.674Z,10.03
2023-05-10T01:31:38.919Z,9.25
2023-05-10T01:34:10.211Z,10.38
2023-05-10T01:36:52.298Z,9.45
2023-05-10T01:39:25.505Z,9.43
2023-05-10T01:41:56.661Z,12.67
2023-05-10T01:44:32.210Z,11.25
2023-05-10T01:47:04.049Z,11.43
2023-05-10T01:49:36.000Z,9.73
2023-05-10T01:52:09.317Z,9.68
2023-05-10T01:54:39.396Z,9.20
2023-05-10T01:57:09.978Z,12.27
2023-05-10T01:59:39.085Z,10.68
2023-05-10T02:02:06.951Z,9.65
2023-05-10T02:04:38.090Z,9.88
2023-05-10T02:07:05.754Z,10.27
2023-05-10T02:09:34.485Z,9.10
2023-05-10T02:12:03.449Z,10.32
2023-05-10T02:14:33.349Z,9.18
2023-05-10T02:17:02.049Z,10.88
2023-05-10T02:19:29.913Z,8.30
2023-05-10T02:21:59.834Z,8.10
2023-05-10T02:24:27.289Z,8.68
2023-05-10T02:26:56.084Z,9.73
2023-05-10T02:29:43.085Z,8.35
2023-05-10T02:32:12.337Z,8.37
2023-05-10T02:34:40.344Z,8.07
2023-05-10T02:37:09.348Z,8.13
2023-05-10T02:39:36.386Z,9.50
2023-05-10T02:42:03.494Z,7.97
2023-05-10T02:44:30.640Z,7.80
2023-05-10T02:46:57.359Z,10.18
2023-05-10T02:49:23.981Z,9.82
2023-05-10T02:51:56.418Z,7.25
2023-05-10T02:54:30.401Z,8.95
2023-05-10T02:57:00.131Z,10.60
2023-05-10T02:59:26.737Z,8.60
2023-05-10T03:01:53.359Z,8.95
2023-05-10T03:04:20.110Z,8.85
2023-05-10T03:06:47.139Z,9.35
2023-05-10T03:09:14.136Z,8.07
2023-05-10T03:11:50.811Z,8.23
2023-05-10T03:14:26.619Z,9.90
2023-05-10T03:17:01.360Z,9.23
2023-05-10T03:19:33.276Z,9.32
2023-05-10T03:22:06.022Z,9.93
2023-05-10T03:24:36.191Z,10.93
2023-05-10T03:27:05.453Z,8.23
2023-05-10T03:29:32.770Z,7.82
2023-05-10T03:31:59.750Z,7.57
2023-05-10T03:34:26.803Z,9.17
2023-05-10T03:36:53.360Z,8.32
2023-05-10T03:39:20.163Z,10.13
2023-05-10T03:41:46.733Z,10.48
2023-05-10T03:44:14.665Z,10.90
2023-05-10T03:46:41.229Z,10.40
2023-05-10T03:49:07.831Z,10.60
2023-05-10T03:51:34.550Z,10.45
2023-05-10T03:54:01.070Z,12.55
2023-05-10T03:56:27.785Z,9.82
2023-05-10T03:58:54.444Z,11.47
2023-05-10T04:01:22.404Z,10.50
2023-05-10T04:03:49.121Z,11.07
2023-05-10T04:06:15.756Z,12.50
2023-05-10T04:08:42.290Z,11.52
2023-05-10T04:11:10.248Z,12.33
2023-05-10T04:13:36.896Z,12.32
2023-05-10T04:16:04.098Z,13.13
2023-05-10T04:18:32.077Z,15.15
2023-05-10T04:20:58.753Z,14.68
2023-05-10T04:23:25.495Z,13.63
2023-05-10T04:25:52.191Z,14.82
2023-05-10T04:28:18.814Z,13.98
2023-05-10T04:30:45.693Z,21.83
2023-05-10T04:33:12.316Z,15.98
2023-05-10T04:35:40.325Z,17.43
2023-05-10T04:38:06.896Z,18.63
2023-05-10T04:40:33.575Z,17.52
2023-05-10T04:43:00.188Z,20.90
2023-05-10T04:45:26.764Z,18.45
2023-05-10T04:47:53.409Z,21.60
2023-05-10T04:50:20.166Z,20.20
2023-05-10T04:52:48.504Z,19.85
2023-05-10T04:55:15.284Z,20.15
2023-05-10T04:57:41.877Z,20.10
2023-05-10T05:00:09.569Z,22.13
2023-05-10T05:02:36.267Z,19.17
2023-05-10T05:05:02.950Z,18.25
2023-05-10T05:07:29.521Z,21.13
2023-05-10T05:09:57.529Z,18.20
2023-05-10T05:12:24.110Z,19.80
2023-05-10T05:14:50.664Z,20.00
2023-05-10T05:17:17.232Z,20.83
2023-05-10T05:19:43.668Z,19.23
2023-05-10T05:22:10.300Z,23.65
2023-05-10T05:24:37.333Z,20.13
2023-05-10T05:27:05.278Z,17.08
2023-05-10T05:29:31.889Z,17.17
2023-05-10T05:31:59.076Z,20.98
2023-05-10T05:34:25.786Z,19.63
2023-05-10T05:36:52.335Z,19.80
2023-05-10T05:39:19.102Z,20.50
2023-05-10T05:41:45.664Z,19.85
2023-05-10T05:44:14.117Z,19.50
2023-05-10T05:46:40.692Z,20.60
2023-05-10T05:49:07.339Z,16.30
2023-05-10T05:51:33.961Z,19.67
2023-05-10T05:54:00.678Z,16.85
2023-05-10T05:56:27.264Z,17.77
2023-05-10T05:58:54.090Z,14.68
2023-05-10T06:01:22.137Z,15.70
2023-05-10T06:03:49.764Z,19.65
2023-05-10T06:06:17.563Z,16.38
2023-05-10T06:08:43.970Z,15.68
2023-05-10T06:11:10.506Z,16.92
2023-05-10T06:13:37.072Z,16.97
2023-05-10T06:16:03.807Z,16.83
2023-05-10T06:18:31.737Z,20.35
2023-05-10T06:20:58.413Z,15.25
2023-05-10T06:23:25.368Z,16.63
2023-05-10T06:25:52.220Z,14.60
2023-05-10T06:28:18.916Z,13.63
2023-05-10T06:30:45.529Z,14.07
2023-05-10T06:33:12.189Z,14.32
2023-05-10T06:35:40.365Z,15.95
2023-05-10T06:38:06.934Z,15.43
2023-05-10T06:40:33.564Z,17.15
2023-05-10T06:43:00.166Z,16.73
2023-05-10T06:45:26.721Z,19.23
2023-05-10T06:47:53.401Z,14.63
2023-05-10T06:50:20.072Z,22.03
2023-05-10T06:52:48.261Z,14.27
2023-05-10T06:55:15.292Z,15.07
2023-05-10T06:57:42.071Z,15.68
2023-05-10T07:00:09.310Z,16.02
2023-05-10T07:02:36.151Z,18.53
2023-05-10T07:05:03.576Z,14.75
2023-05-10T07:07:30.354Z,19.52
2023-05-10T07:09:58.438Z,18.05
2023-05-10T07:12:25.281Z,14.18
2023-05-10T07:14:51.883Z,18.53
2023-05-10T07:17:18.652Z,17.27
2023-05-10T07:19:45.296Z,21.20
2023-05-10T07:22:11.934Z,18.67
2023-05-10T07:24:38.572Z,23.42
2023-05-10T07:27:06.649Z,19.23
2023-05-10T07:29:33.619Z,18.55
2023-05-10T07:32:00.297Z,17.45
2023-05-10T07:34:26.944Z,16.25
2023-05-10T07:36:53.976Z,20.13
2023-05-10T07:39:26.707Z,19.10
2023-05-10T07:41:54.686Z,17.05
2023-05-10T07:44:22.713Z,17.10
2023-05-10T07:46:49.447Z,17.70
2023-05-10T07:49:16.278Z,18.25
2023-05-10T07:51:42.975Z,16.77
2023-05-10T07:54:09.595Z,15.55
2023-05-10T07:56:36.282Z,21.42
2023-05-10T07:59:04.244Z,20.38
2023-05-10T08:01:34.462Z,20.10
2023-05-10T08:04:01.873Z,18.67
2023-05-10T08:06:28.771Z,13.38
2023-05-10T08:08:55.235Z,14.57
2023-05-10T08:11:21.841Z,14.70
2023-05-10T08:13:49.915Z,14.63
2023-05-10T08:16:16.846Z,14.93
2023-05-10T08:18:45.779Z,17.77
2023-05-10T08:21:12.539Z,16.77
2023-05-10T08:23:39.176Z,16.65
2023-05-10T08:26:05.891Z,14.38
2023-05-10T08:28:32.629Z,13.97
2023-05-10T08:30:59.297Z,19.25
2023-05-10T08:33:28.062Z,19.80
2023-05-10T08:35:55.926Z,23.40
2023-05-10T08:38:22.628Z,24.77
2023-05-10T08:40:50.758Z,22.57
2023-05-10T08:43:17.696Z,27.38
2023-05-10T08:45:45.591Z,19.52
2023-05-10T08:48:12.393Z,21.50
2023-05-10T08:50:43.691Z,24.83
2023-05-10T08:53:13.139Z,24.10
2023-05-10T08:55:40.788Z,23.67
2023-05-10T08:58:07.781Z,21.33
2023-05-10T09:00:34.885Z,25.35
2023-05-10T09:03:03.860Z,19.77
2023-05-10T09:05:30.556Z,23.73
2023-05-10T09:07:57.150Z,23.17
2023-05-10T09:10:26.743Z,24.33
2023-05-10T09:12:54.345Z,25.15
2023-05-10T09:15:21.130Z,22.02
2023-05-10T09:17:50.113Z,25.10
2023-05-10T09:20:16.882Z,22.92
2023-05-10T09:22:43.528Z,22.42
2023-05-10T09:25:12.498Z,23.15
2023-05-10T09:27:41.558Z,26.25
2023-05-10T09:30:09.836Z,27.23
2023-05-10T09:32:40.817Z,26.02
2023-05-10T09:35:08.858Z,23.15
2023-05-10T09:37:35.550Z,26.52
2023-05-10T09:40:05.776Z,22.20
2023-05-10T09:42:32.372Z,27.60
2023-05-10T09:45:03.461Z,23.33
2023-05-10T09:47:30.085Z,23.75
2023-05-10T09:49:58.761Z,21.67
2023-05-10T09:52:25.350Z,19.75
2023-05-10T09:54:54.551Z,20.40
2023-05-10T09:57:22.180Z,21.30
2023-05-10T09:59:49.176Z,17.60
2023-05-10T10:02:17.443Z,16.75
2023-05-10T10:04:44.221Z,16.55
2023-05-10T10:07:10.867Z,15.20
2023-05-10T10:09:37.512Z,14.93
2023-05-10T10:12:04.933Z,15.05
2023-05-10T10:14:31.667Z,14.18
2023-05-10T10:19:34.248Z,12.33
2023-05-10T10:22:01.312Z,12.80
2023-05-10T10:24:28.080Z,14.50
2023-05-10T10:26:58.230Z,12.45
2023-05-10T10:29:32.255Z,12.30
2023-05-10T10:32:10.285Z,11.13
2023-05-10T10:34:40.386Z,14.07
2023-05-10T10:37:08.362Z,13.75
2023-05-10T10:39:34.957Z,11.80
2023-05-10T10:42:01.604Z,11.43
2023-05-10T10:44:36.593Z,14.43
2023-05-10T10:47:06.042Z,10.70
2023-05-10T10:49:33.569Z,17.17
2023-05-10T10:52:33.296Z,19.70
2023-05-10T10:55:02.254Z,15.10
2023-05-10T10:57:29.525Z,16.60
2023-05-10T11:00:30.281Z,14.50
2023-05-10T11:03:03.509Z,15.65
2023-05-10T11:05:41.538Z,18.73
2023-05-10T11:08:20.290Z,14.38
2023-05-10T11:10:55.254Z,18.67
2023-05-10T11:13:30.100Z,12.98
2023-05-10T11:15:57.293Z,13.88
2023-05-10T11:18:26.288Z,12.02
2023-05-10T11:20:53.803Z,12.38
2023-05-10T11:23:23.497Z,12.70
2023-05-10T11:25:50.484Z,9.82
2023-05-10T11:28:18.910Z,12.52
2023-05-10T11:30:46.260Z,11.82
2023-05-10T11:33:17.212Z,12.82
2023-05-10T11:35:44.015Z,12.20
2023-05-10T11:38:12.005Z,21.17
2023-05-10T11:40:40.680Z,11.60
2023-05-10T11:43:09.236Z,12.73
2023-05-10T11:45:36.170Z,10.57
2023-05-10T11:48:04.021Z,11.97
2023-05-10T11:50:30.771Z,15.82
2023-05-10T11:52:58.173Z,12.82
2023-05-10T11:55:25.056Z,15.55
2023-05-10T11:57:55.143Z,14.65
2023-05-10T12:00:22.210Z,14.33
2023-05-10T12:02:49.451Z,15.63
2023-05-10T12:05:16.320Z,15.38
2023-05-10T12:07:42.939Z,15.75
2023-05-10T12:10:10.986Z,16.63
2023-05-10T12:12:41.646Z,17.90
2023-05-10T12:15:12.057Z,13.43
2023-05-10T12:17:40.702Z,17.92
2023-05-10T12:20:16.274Z,15.15
2023-05-10T12:22:45.937Z,16.63
2023-05-10T12:25:12.578Z,13.17
2023-05-10T12:27:39.264Z,12.98
2023-05-10T12:30:07.138Z,11.40
2023-05-10T12:32:42.326Z,11.38
2023-05-10T12:35:09.360Z,12.25
2023-05-10T12:37:36.347Z,12.37
2023-05-10T12:40:03.137Z,12.80
2023-05-10T12:42:29.888Z,11.45
2023-05-10T12:44:57.127Z,12.48
2023-05-10T12:47:23.694Z,16.05
2023-05-10T12:49:51.690Z,13.10
2023-05-10T12:52:18.317Z,11.63
2023-05-10T12:54:44.958Z,11.80
2023-05-10T12:57:11.568Z,10.95
2023-05-10T12:59:38.416Z,12.57
2023-05-10T13:02:05.305Z,10.87
2023-05-10T13:04:32.014Z,10.95
2023-05-10T13:07:00.137Z,10.77
2023-05-10T13:09:28.620Z,9.32
2023-05-10T13:11:55.201Z,9.70
2023-05-10T13:14:21.956Z,11.13
2023-05-10T13:16:48.779Z,9.45
2023-05-10T13:19:16.558Z,10.18
2023-05-10T13:21:43.309Z,10.27
2023-05-10T13:24:11.466Z,13.63
2023-05-10T13:26:38.162Z,11.07
2023-05-10T13:29:04.717Z,12.38
2023-05-10T13:31:31.393Z,11.68
2023-05-10T13:33:58.021Z,10.55
2023-05-10T13:36:24.634Z,11.90
2023-05-10T13:38:51.260Z,13.73
2023-05-10T13:41:19.236Z,16.90
2023-05-10T13:43:45.795Z,12.82
2023-05-10T13:46:12.434Z,13.30
2023-05-10T13:48:39.280Z,12.77
2023-05-10T13:51:05.981Z,12.07
2023-05-10T13:53:32.556Z,11.93
2023-05-10T13:56:02.027Z,12.57
2023-05-10T13:58:30.004Z,14.40
2023-05-10T14:04:18.385Z,12.30
2023-05-10T14:06:44.961Z,14.57
2023-05-10T14:09:11.540Z,16.48
2023-05-10T14:11:38.115Z,13.23
2023-05-10T14:14:06.042Z,15.20
2023-05-10T14:16:32.655Z,14.40
2023-05-10T14:18:59.269Z,17.02
2023-05-10T14:21:25.985Z,16.40
2023-05-10T14:23:52.536Z,15.85
2023-05-10T14:26:19.113Z,17.02
2023-05-10T14:28:45.755Z,15.70
2023-05-10T14:31:13.856Z,12.98
2023-05-10T14:33:40.533Z,13.23
2023-05-10T14:36:07.752Z,13.95
2023-05-10T14:38:34.176Z,12.95
2023-05-10T14:41:00.766Z,17.40
2023-05-10T14:43:27.439Z,11.98
2023-05-10T14:45:55.520Z,12.00
2023-05-10T14:48:23.530Z,11.60
2023-05-10T14:50:50.094Z,14.77
2023-05-10T14:53:16.686Z,13.20
2023-05-10T14:55:43.456Z,11.88
2023-05-10T14:58:10.033Z,10.98
2023-05-10T15:00:41.572Z,12.27
2023-05-10T15:03:08.669Z,10.57
2023-05-10T15:05:39.781Z,15.27
2023-05-10T15:08:06.443Z,10.77
2023-05-10T15:10:34.364Z,11.52
2023-05-10T15:13:01.412Z,10.77
2023-05-10T15:15:28.000Z,12.25
2023-05-10T15:17:54.589Z,11.37
2023-05-10T15:20:21.232Z,11.82
2023-05-10T15:22:49.176Z,9.50
2023-05-10T15:25:15.859Z,13.57
2023-05-10T15:27:42.741Z,12.18
2023-05-10T15:30:10.395Z,11.93
2023-05-10T15:32:36.959Z,11.65
2023-05-10T15:35:03.813Z,11.75
2023-05-10T15:37:32.963Z,10.50
2023-05-10T15:40:01.329Z,8.88
2023-05-10T15:42:27.885Z,11.20
2023-05-10T15:44:54.474Z,9.27
2023-05-10T15:47:21.121Z,9.73
2023-05-10T15:49:48.103Z,8.88
2023-05-10T15:52:14.677Z,8.50
2023-05-10T15:54:41.405Z,10.37
2023-05-10T15:57:09.343Z,10.27
2023-05-10T15:59:35.894Z,9.15
2023-05-10T16:02:02.581Z,8.30
2023-05-10T16:04:29.145Z,7.03
2023-05-10T16:06:55.810Z,7.10
2023-05-10T16:09:22.407Z,7.95
2023-05-10T16:11:49.041Z,8.60
2023-05-10T16:14:16.970Z,9.85
2023-05-10T16:16:43.643Z,12.45
2023-05-10T16:19:10.276Z,6.03
2023-05-10T16:21:36.926Z,9.85
2023-05-10T16:24:03.820Z,7.45
2023-05-10T16:26:30.481Z,10.23
2023-05-10T16:28:57.148Z,7.60
2023-05-10T16:31:25.102Z,8.70
2023-05-10T16:33:51.835Z,6.22
2023-05-10T16:36:18.683Z,5.90
2023-05-10T16:38:45.242Z,5.70
2023-05-10T16:41:11.812Z,3.78
2023-05-10T16:43:38.402Z,4.80
2023-05-10T16:46:10.244Z,3.08
2023-05-10T16:48:38.440Z,3.40
2023-05-10T16:51:05.045Z,6.47
2023-05-10T16:53:31.893Z,2.45
2023-05-10T16:55:58.464Z,4.70
2023-05-10T16:58:25.111Z,3.05
2023-05-10T17:00:51.732Z,3.25
2023-05-10T17:03:18.666Z,3.20
2023-05-10T17:05:46.668Z,1.85
2023-05-10T17:08:13.126Z,4.47
2023-05-10T17:10:40.148Z,2.40
2023-05-10T17:13:08.117Z,3.08
2023-05-10T17:15:36.763Z,2.22
2023-05-10T17:18:03.516Z,3.13
2023-05-10T17:20:30.147Z,3.40
2023-05-10T17:22:58.110Z,3.05
2023-05-10T17:25:24.783Z,1.85
2023-05-10T17:27:51.403Z,2.65
2023-05-10T17:30:18.018Z,3.65
2023-05-10T17:32:44.711Z,2.60
2023-05-10T17:35:14.198Z,1.70
2023-05-10T17:37:40.855Z,2.85
2023-05-10T17:40:10.251Z,3.20
2023-05-10T17:42:36.820Z,2.60
2023-05-10T17:45:03.681Z,2.57
2023-05-10T17:47:31.552Z,2.33
2023-05-10T17:49:58.200Z,2.13
2023-05-10T17:52:24.805Z,2.80
2023-05-10T17:54:51.366Z,1.65
2023-05-10T17:57:19.344Z,2.40
2023-05-10T17:59:45.902Z,1.95
2023-05-10T18:02:13.267Z,2.80
2023-05-10T18:04:40.126Z,2.08
2023-05-10T18:07:06.995Z,2.15
2023-05-10T18:09:33.492Z,2.00
2023-05-10T18:12:01.710Z,1.60
2023-05-10T18:14:39.697Z,2.67
2023-05-10T18:17:07.572Z,1.80
2023-05-10T18:19:34.330Z,2.58
2023-05-10T18:22:00.913Z,1.90
2023-05-10T18:24:38.320Z,1.63
2023-05-10T18:27:06.092Z,3.08
2023-05-10T18:29:34.322Z,3.15
2023-05-10T18:32:00.881Z,2.70
2023-05-10T18:34:27.441Z,3.37
2023-05-10T18:36:54.097Z,3.03
2023-05-10T18:39:20.793Z,3.13
2023-05-10T18:41:47.494Z,2.83
2023-05-10T18:44:14.157Z,3.20
2023-05-10T18:46:42.300Z,6.07
2023-05-10T18:49:08.958Z,4.18
2023-05-10T18:51:35.650Z,2.53
2023-05-10T18:54:02.223Z,3.75
2023-05-10T18:56:28.793Z,5.18
2023-05-10T18:58:55.314Z,3.00
2023-05-10T19:01:21.868Z,5.68
2023-05-10T19:03:49.806Z,3.15
2023-05-10T19:06:16.388Z,3.03
2023-05-10T19:08:43.058Z,3.63
2023-05-10T19:11:09.618Z,2.87
2023-05-10T19:13:36.470Z,4.25
2023-05-10T19:16:04.707Z,4.85
2023-05-10T19:18:33.219Z,2.40
2023-05-10T19:21:02.140Z,2.95
2023-05-10T19:23:28.840Z,2.83
2023-05-10T19:25:55.394Z,5.80
2023-05-10T19:28:22.006Z,3.72
2023-05-10T19:30:48.664Z,4.25
2023-05-10T19:33:15.290Z,5.22
2023-05-10T19:35:41.943Z,3.97
2023-05-10T19:38:10.003Z,5.03
2023-05-10T19:40:36.571Z,4.18
2023-05-10T19:43:03.282Z,4.85
2023-05-10T19:45:30.066Z,3.55
2023-05-10T19:47:56.628Z,4.77
2023-05-10T19:50:23.299Z,3.60
2023-05-10T19:52:50.627Z,4.40
2023-05-10T19:55:27.055Z,3.72
2023-05-10T19:57:53.712Z,3.20
2023-05-10T20:00:20.338Z,3.50
2023-05-10T20:02:46.971Z,3.95
2023-05-10T20:05:13.585Z,5.22
2023-05-10T20:07:40.166Z,3.97
2023-05-10T20:10:07.941Z,8.00
2023-05-10T20:12:35.938Z,7.77
2023-05-10T20:15:02.705Z,5.63
2023-05-10T20:17:29.580Z,4.43
2023-05-10T20:19:56.189Z,4.10
2023-05-10T20:22:22.732Z,4.72
2023-05-10T20:24:49.325Z,4.77
2023-05-10T20:27:16.969Z,4.53
2023-05-10T20:29:44.889Z,4.90
2023-05-10T20:32:11.443Z,5.55
2023-05-10T20:34:37.995Z,5.72
2023-05-10T20:37:04.551Z,5.47
2023-05-10T20:39:31.128Z,6.30
2023-05-10T20:41:57.699Z,4.97
2023-05-10T20:44:24.332Z,8.45
2023-05-10T20:46:53.025Z,7.30
2023-05-10T20:49:19.596Z,7.97
2023-05-10T20:51:56.494Z,5.15
2023-05-10T20:54:23.128Z,5.95
2023-05-10T20:56:49.839Z,8.05
2023-05-10T20:59:16.459Z,6.25
2023-05-10T21:01:43.041Z,9.03
2023-05-10T21:04:11.061Z,7.57
2023-05-10T21:06:38.308Z,7.43
2023-05-10T21:09:05.025Z,6.35
2023-05-10T21:11:35.942Z,7.38
2023-05-10T21:14:02.776Z,6.50
2023-05-10T21:16:29.386Z,6.72
2023-05-10T21:18:56.018Z,7.45
2023-05-10T21:21:24.012Z,7.00
2023-05-10T21:23:50.576Z,8.38
2023-05-10T21:26:17.159Z,7.77
2023-05-10T21:28:44.305Z,7.28
2023-05-10T21:31:11.001Z,7.00
2023-05-10T21:33:37.574Z,7.30
2023-05-10T21:36:04.895Z,8.45
2023-05-10T21:38:33.291Z,6.43
2023-05-10T21:41:15.470Z,8.02
2023-05-10T21:43:42.649Z,8.00
2023-05-10T21:46:09.428Z,8.75
2023-05-10T21:48:36.337Z,7.50
2023-05-10T21:51:03.033Z,11.27
2023-05-10T21:53:29.553Z,8.35
2023-05-10T21:55:57.535Z,9.88
2023-05-10T21:58:24.211Z,12.82
2023-05-10T22:00:51.015Z,10.55
2023-05-10T22:03:18.321Z,11.00
2023-05-10T22:05:45.038Z,9.43
2023-05-10T22:08:11.678Z,9.30
2023-05-10T22:10:38.327Z,8.48
2023-05-10T22:13:06.514Z,12.30
2023-05-10T22:15:35.545Z,9.73
2023-05-10T22:18:03.064Z,13.07
2023-05-10T22:20:29.807Z,10.60
2023-05-10T22:22:56.372Z,8.38
2023-05-10T22:25:22.911Z,9.80
2023-05-10T22:30:32.783Z,8.30
2023-05-10T22:32:59.724Z,11.88
2023-05-10T22:35:26.346Z,7.97
2023-05-10T22:37:52.917Z,11.00
2023-05-10T22:40:19.635Z,11.13
2023-05-10T22:42:46.279Z,11.15
2023-05-10T22:45:12.873Z,13.50
2023-05-10T22:47:41.369Z,9.57
2023-05-10T22:50:09.200Z,13.40
2023-05-10T22:52:35.752Z,11.97
2023-05-10T22:55:02.274Z,12.23
2023-05-10T22:57:29.378Z,12.57
2023-05-10T22:59:55.931Z,13.10
2023-05-10T23:02:22.623Z,14.32
2023-05-10T23:04:50.793Z,12.20
2023-05-10T23:07:17.333Z,11.80
2023-05-10T23:09:43.888Z,13.98
2023-05-10T23:12:10.469Z,15.75
2023-05-10T23:14:37.003Z,14.07
2023-05-10T23:17:03.552Z,11.27
2023-05-10T23:19:30.162Z,13.07
2023-05-10T23:21:58.083Z,12.20
2023-05-10T23:24:24.623Z,12.25
2023-05-10T23:26:51.453Z,17.20
2023-05-10T23:29:18.136Z,13.77
2023-05-10T23:31:44.713Z,15.27
2023-05-10T23:34:11.391Z,12.93
2023-05-10T23:36:38.061Z,14.32
2023-05-10T23:39:06.608Z,10.27
2023-05-10T23:41:33.158Z,14.60
2023-05-10T23:43:59.881Z,11.07
2023-05-10T23:46:26.516Z,13.52
2023-05-10T23:48:53.299Z,13.63
2023-05-10T23:51:19.847Z,16.45
2023-05-10T23:53:46.436Z,13.80
2023-05-10T23:56:14.496Z,14.98
2023-05-10T23:58:41.047Z,16.08
